Time;durP1;ratioP1;P1;durP2;ratioP2;P2;SDS_P1;SDS_P2;PMS_P1;PMS_P2;Temp;Humidity;BMP_temperature;BMP_pressure;BME280_temperature;BME280_humidity;BME280_pressure;Samples;Min_cycle;Max_cycle;Signal;HPM_P1;HPM_P2
2021/07/11 00:02:19;;;;;;;;;;;;;;;17.33;81.88;101574.81;5074099;28;20280;-40
2021/07/11 00:04:45;;;;;;;22.13;19.75;;;;;;;17.16;83.99;101572.97;5073543;28;19961;-40
2021/07/11 00:07:14;;;;;;;21.37;19.27;;;;;;;17.27;83.33;101576.63;5074467;28;20021;-40
2021/07/11 00:09:40;;;;;;;23.75;21.27;;;;;;;17.17;84.15;101568.31;5074280;28;20352;-40
2021/07/11 00:12:05;;;;;;;24.52;22.13;;;;;;;17.17;83.84;101569.16;5073756;28;20113;-40
2021/07/11 00:14:31;;;;;;;24.60;21.98;;;;;;;17.11;83.87;101575.66;5075048;28;20353;-40
2021/07/11 00:16:56;;;;;;;23.55;21.15;;;;;;;17.11;83.81;101564.72;5077872;28;20074;-40
2021/07/11 00:19:21;;;;;;;;;;;;;;;17.30;82.04;101562.47;5077734;28;20035;-41
2021/07/11 00:21:47;;;;;;;26.77;21.77;;;;;;;17.11;84.61;101564.72;5077505;28;19912;-40
2021/07/11 00:24:12;;;;;;;;;;;;;;;17.24;82.22;101564.31;5077829;28;20028;-40
2021/07/11 00:26:37;;;;;;;22.93;20.20;;;;;;;17.13;83.54;101567.19;5077695;28;19904;-40
2021/07/11 00:29:02;;;;;;;;;;;;;;;17.25;81.79;101571.44;5077737;28;20080;-40
2021/07/11 00:31:28;;;;;;;22.90;20.50;;;;;;;17.10;84.05;101557.63;5077426;28;19915;-40
2021/07/11 00:33:53;;;;;;;;;;;;;;;17.27;81.82;101559.41;5077427;28;20023;-40
2021/07/11 00:36:18;;;;;;;23.67;21.27;;;;;;;17.17;83.52;101550.03;5077004;28;19912;-40
2021/07/11 00:38:43;;;;;;;;;;;;;;;17.29;81.80;101549.88;5078134;28;20025;-40
2021/07/11 00:41:09;;;;;;;23.47;21.07;;;;;;;17.14;83.50;101547.81;5077079;28;19995;-40
2021/07/11 00:43:34;;;;;;;24.58;22.02;;;;;;;17.11;83.87;101542.88;5077001;28;20263;-40
2021/07/11 00:46:00;;;;;;;;;;;;;;;17.23;81.92;101551.75;5077661;28;20078;-40
2021/07/11 00:48:26;;;;;;;22.48;20.23;;;;;;;17.13;83.57;101548.91;5076661;28;19904;-40
2021/07/11 00:50:51;;;;;;;;;;;;;;;17.22;81.75;101554.72;5077606;28;20468;-40
2021/07/11 00:53:16;;;;;;;23.27;20.98;;;;;;;16.96;84.18;101553.63;5076881;28;19911;-40
2021/07/11 00:55:42;;;;;;;;;;;;;;;17.12;82.43;101560.91;5077529;28;20023;-40
2021/07/11 00:58:07;;;;;;;24.40;21.90;;;;;;;16.97;83.91;101558.84;5076489;28;19911;-40
2021/07/11 01:00:33;;;;;;;;;;;;;;;17.12;82.01;101569.09;5077718;28;20025;-40
2021/07/11 01:03:07;;;;;;;24.42;21.80;;;;;;;17.04;84.03;101550.44;5076553;28;19954;-40
2021/07/11 01:05:33;;;;;;;24.30;21.88;;;;;;;17.08;83.99;101554.31;5076691;28;20024;-40
2021/07/11 01:08:29;;;;;;;24.23;21.73;;;;;;;17.08;83.91;101551.59;5076349;28;20028;-40
2021/07/11 01:11:06;;;;;;;24.30;21.70;;;;;;;17.06;83.75;101545.53;5077422;28;20025;-40
2021/07/11 01:13:34;;;;;;;24.70;22.20;;;;;;;17.04;84.08;101553.19;5076526;28;20028;-40
2021/07/11 01:16:08;;;;;;;24.25;21.85;;;;;;;17.01;84.36;101553.69;5076250;28;20112;-40
2021/07/11 01:18:39;;;;;;;24.65;22.17;;;;;;;16.94;84.95;101553.91;5076393;28;20023;-40
2021/07/11 01:21:16;;;;;;;24.48;21.98;;;;;;;16.94;84.80;101559.38;5076965;28;20021;-40
2021/07/11 01:23:53;;;;;;;24.45;21.95;;;;;;;16.92;85.19;101560.69;5076433;28;20044;-40
2021/07/11 01:26:20;;;;;;;24.13;21.65;;;;;;;16.87;85.10;101557.91;5075686;28;20064;-40
2021/07/11 01:28:50;;;;;;;26.10;23.42;;;;;;;16.83;85.08;101562.22;5076216;28;20044;-40
2021/07/11 01:31:17;;;;;;;23.83;21.27;;;;;;;16.86;85.53;101564.44;5076828;28;20048;-40
2021/07/11 01:33:44;;;;;;;25.58;22.88;;;;;;;16.86;85.08;101557.06;5076523;28;20070;-40
2021/07/11 01:36:11;;;;;;;24.08;21.67;;;;;;;16.88;85.05;101571.28;5076807;28;20107;-40
2021/07/11 01:38:37;;;;;;;25.23;22.17;;;;;;;16.87;85.58;101557.91;5075762;28;20023;-40
2021/07/11 01:41:04;;;;;;;24.45;21.90;;;;;;;16.89;85.35;101562.03;5076323;28;20024;-40
2021/07/11 01:43:30;;;;;;;25.83;23.13;;;;;;;16.84;85.30;101561.97;5076500;28;20021;-40
2021/07/11 01:45:56;;;;;;;;;;;;;;;17.03;83.65;101567.09;5076476;28;20020;-40
2021/07/11 01:48:22;;;;;;;25.10;21.63;;;;;;;16.97;84.47;101568.94;5075890;28;19957;-40
2021/07/11 01:50:50;;;;;;;25.23;22.65;;;;;;;16.86;85.29;101578.09;5076699;28;20399;-40
2021/07/11 01:53:17;;;;;;;25.08;22.40;;;;;;;16.96;84.50;101570.84;5076182;28;20093;-40
2021/07/11 01:55:42;;;;;;;26.13;23.42;;;;;;;16.85;85.53;101576.47;5075611;28;20048;-40
2021/07/11 01:58:07;;;;;;;26.10;23.30;;;;;;;16.83;85.39;101563.03;5076324;28;20024;-40
2021/07/11 02:00:33;;;;;;;;;;;;;;;17.02;83.79;101569.00;5076100;28;20456;-40
2021/07/11 02:02:58;;;;;;;25.90;23.30;;;;;;;16.91;85.08;101557.13;5075387;28;19908;-40
2021/07/11 02:05:24;;;;;;;26.20;23.48;;;;;;;16.92;85.22;101553.31;5075708;28;20112;-40
2021/07/11 02:07:49;;;;;;;;;;;;;;;17.07;83.22;101563.59;5076279;28;20344;-40
2021/07/11 02:10:16;;;;;;;27.53;22.83;;;;;;;16.99;85.34;101561.31;5075545;28;19951;-40
2021/07/11 02:12:52;;;;;;;28.27;25.38;;;;;;;17.00;85.34;101560.25;5075662;28;20082;-40
2021/07/11 02:15:18;;;;;;;31.08;26.00;;;;;;;16.99;85.29;101559.41;5075767;28;20029;-40
2021/07/11 02:17:50;;;;;;;29.77;26.35;;;;;;;17.00;85.37;101562.97;5075106;28;20070;-40
2021/07/11 02:20:16;;;;;;;28.08;25.15;;;;;;;16.95;86.06;101569.19;5076118;28;20400;-40
2021/07/11 02:22:44;;;;;;;33.50;25.92;;;;;;;16.92;86.08;101566.97;5075205;28;20036;-39
2021/07/11 02:25:11;;;;;;;31.52;27.60;;;;;;;16.99;85.45;101564.06;5076081;28;20043;-40
2021/07/11 02:27:37;;;;;;;29.48;26.38;;;;;;;16.95;86.18;101565.66;5075096;28;20017;-40
2021/07/11 02:30:07;;;;;;;;;;;;;;;17.10;84.17;101576.75;5076058;28;20045;-40
2021/07/11 02:32:33;;;;;;;27.27;24.38;;;;;;;16.98;85.58;101571.44;5075006;28;19916;-40
2021/07/11 02:35:00;;;;;;;31.67;28.23;;;;;;;16.99;85.57;101573.06;5074775;28;20024;-40
2021/07/11 02:37:26;;;;;;;31.00;27.13;;;;;;;17.00;85.87;101576.63;5073692;28;20024;-40
2021/07/11 02:39:55;;;;;;;32.08;27.85;;;;;;;16.90;86.58;101566.41;5075251;28;20035;-40
2021/07/11 02:42:22;;;;;;;31.38;27.98;;;;;;;16.93;86.04;101571.38;5074801;28;20016;-40
2021/07/11 02:44:52;;;;;;;32.35;28.75;;;;;;;16.94;86.35;101564.81;5075668;28;20020;-40
2021/07/11 02:47:23;;;;;;;33.80;29.10;;;;;;;16.97;86.52;101566.19;5074509;28;20021;-40
2021/07/11 02:49:53;;;;;;;35.47;31.30;;;;;;;16.97;86.82;101568.94;5075003;28;20419;-40
2021/07/11 02:52:21;;;;;;;32.03;27.90;;;;;;;16.98;87.06;101570.59;5074396;28;20044;-40
2021/07/11 02:55:17;;;;;;;36.90;30.98;;;;;;;16.98;86.32;101573.31;5074604;28;20036;-40
2021/07/11 02:57:46;;;;;;;35.72;30.23;;;;;;;16.96;86.98;101568.13;5074047;28;20495;-40
2021/07/11 03:00:12;;;;;;;37.13;30.63;;;;;;;16.98;86.89;101570.59;5074206;28;20099;-40
2021/07/11 03:02:40;;;;;;;34.70;30.50;;;;;;;16.93;87.03;101573.25;5074896;28;20504;-40
2021/07/11 03:05:09;;;;;;;34.85;30.42;;;;;;;16.97;87.20;101588.88;5074615;28;20024;-40
2021/07/11 03:07:34;;;;;;;35.75;30.92;;;;;;;16.95;86.70;101574.66;5074306;28;20082;-40
2021/07/11 03:09:59;;;;;;;34.97;30.92;;;;;;;17.01;86.92;101577.47;5074364;28;20021;-40
2021/07/11 03:12:25;;;;;;;;;;;;;;;17.09;85.06;101580.56;5074430;28;20028;-40
2021/07/11 03:14:51;;;;;;;35.28;30.63;;;;;;;16.98;86.40;101570.59;5074294;28;19911;-40
2021/07/11 03:17:23;;;;;;;34.25;28.38;;;;;;;17.00;86.40;101573.91;5074168;28;20027;-40
2021/07/11 03:19:53;;;;;;;36.28;31.05;;;;;;;17.02;86.80;101582.66;5074162;28;20116;-40
2021/07/11 03:22:23;;;;;;;40.17;32.95;;;;;;;16.97;86.79;101583.41;5073928;28;20032;-40
2021/07/11 03:24:49;;;;;;;38.83;32.08;;;;;;;16.98;86.87;101581.50;5074650;28;20050;-40
2021/07/11 03:27:16;;;;;;;39.92;32.03;;;;;;;17.00;86.56;101582.09;5074893;28;20012;-40
2021/07/11 03:30:01;;;;;;;38.90;32.78;;;;;;;16.99;87.04;101577.72;5074391;28;20059;-40
2021/07/11 03:32:27;;;;;;;36.63;32.40;;;;;;;16.97;87.05;101580.69;5073994;28;20027;-40
2021/07/11 03:34:52;;;;;;;;;;;;;;;17.08;85.29;101576.19;5074069;28;20457;-40
2021/07/11 03:37:22;;;;;;;34.80;30.50;;;;;;;16.92;87.02;101574.34;5074484;28;19915;-40
2021/07/11 03:39:48;;;;;;;36.75;32.00;;;;;;;16.95;86.99;101576.56;5074633;28;20024;-40
2021/07/11 03:42:17;;;;;;;36.67;31.88;;;;;;;16.92;87.58;101583.38;5074106;28;20365;-40
2021/07/11 03:44:47;;;;;;;34.97;31.08;;;;;;;16.93;87.18;101585.03;5073519;28;20021;-40
2021/07/11 03:47:15;;;;;;;39.00;32.05;;;;;;;16.90;87.35;101581.97;5073796;28;20073;-40
2021/07/11 03:49:45;;;;;;;38.05;32.63;;;;;;;16.87;88.27;101596.97;5073477;28;20027;-40
2021/07/11 03:52:13;;;;;;;37.63;31.52;;;;;;;16.91;87.72;101591.81;5073768;28;20028;-40
2021/07/11 03:54:39;;;;;;;38.13;32.47;;;;;;;16.89;87.48;101588.53;5073286;28;20055;-40
2021/07/11 03:57:06;;;;;;;36.75;30.88;;;;;;;16.96;87.43;101594.63;5073951;28;20111;-40
2021/07/11 03:59:33;;;;;;;38.42;32.30;;;;;;;16.94;87.41;101597.59;5074372;28;20028;-40
2021/07/11 04:02:02;;;;;;;38.72;31.65;;;;;;;16.93;87.56;101595.09;5073813;28;20041;-40
2021/07/11 04:04:30;;;;;;;39.80;32.78;;;;;;;16.95;87.91;101603.91;5073520;28;20108;-40
2021/07/11 04:06:57;;;;;;;38.53;32.88;;;;;;;16.96;87.52;101602.81;5074386;28;20024;-40
2021/07/11 04:09:24;;;;;;;42.72;34.00;;;;;;;16.93;87.48;101600.56;5073497;28;20027;-40
2021/07/11 04:11:49;;;;;;;39.40;33.20;;;;;;;16.93;87.86;101590.50;5073239;28;20032;-40
2021/07/11 04:14:17;;;;;;;44.65;35.25;;;;;;;16.90;87.94;101587.44;5073450;28;20024;-40
2021/07/11 04:16:45;;;;;;;39.35;33.13;;;;;;;16.90;88.23;101573.78;5073400;28;20468;-40
2021/07/11 04:19:12;;;;;;;46.78;37.22;;;;;;;16.85;88.03;101587.38;5073373;28;20031;-40
2021/07/11 04:21:39;;;;;;;46.72;36.63;;;;;;;16.75;88.45;101584.53;5073388;28;20029;-40
2021/07/11 04:24:05;;;;;;;44.65;34.95;;;;;;;16.85;88.12;101581.91;5073649;28;20380;-40
2021/07/11 04:26:34;;;;;;;46.63;35.10;;;;;;;16.87;88.59;101587.94;5073164;28;20032;-40
2021/07/11 04:29:01;;;;;;;43.85;35.83;;;;;;;16.82;88.30;101585.97;5072983;28;20040;-40
2021/07/11 04:31:26;;;;;;;48.25;36.72;;;;;;;16.85;88.31;101587.38;5073587;28;20020;-40
2021/07/11 04:33:52;;;;;;;45.92;35.97;;;;;;;16.85;88.82;101590.94;5073821;28;20438;-40
2021/07/11 04:36:17;;;;;;;;;;;;;;;16.99;87.07;101596.84;5074322;28;20082;-40
2021/07/11 04:38:43;;;;;;;45.20;35.07;;;;;;;16.85;88.22;101590.13;5073222;28;19915;-40
2021/07/11 04:41:10;;;;;;;42.93;34.93;;;;;;;16.94;88.40;101591.31;5073233;28;20334;-40
2021/07/11 04:43:36;;;;;;;49.42;37.78;;;;;;;16.81;88.67;101595.25;5072726;28;20344;-40
2021/07/11 04:46:02;;;;;;;45.35;35.42;;;;;;;16.88;88.63;101595.06;5073183;28;20120;-40
2021/07/11 04:48:27;;;;;;;47.65;35.80;;;;;;;16.83;88.93;101593.09;5073147;28;20096;-40
2021/07/11 04:50:53;;;;;;;;;;;;;;;16.99;87.42;101599.56;5074168;28;20429;-40
2021/07/11 04:53:18;;;;;;;49.70;36.53;;;;;;;16.92;87.93;101596.19;5073104;28;19905;-40
2021/07/11 04:55:45;;;;;;;45.47;36.25;;;;;;;16.90;88.62;101599.19;5072807;28;20025;-40
2021/07/11 04:58:11;;;;;;;48.53;36.58;;;;;;;16.84;89.17;101585.75;5073008;28;20029;-40
2021/07/11 05:00:37;;;;;;;48.83;34.85;;;;;;;16.89;88.62;101586.63;5073308;28;20404;-40
2021/07/11 05:03:02;;;;;;;46.83;37.75;;;;;;;16.90;88.67;101584.72;5076713;28;20051;-40
2021/07/11 05:05:28;;;;;;;;;;;;;;;17.04;87.11;101585.97;5078068;28;20330;-40
2021/07/11 05:07:53;;;;;;;46.20;33.78;;;;;;;16.96;88.11;101579.03;5076724;28;20298;-40
2021/07/11 05:10:18;;;;;;;;;;;;;;;17.10;86.72;101571.28;5077178;28;20028;-40
2021/07/11 05:12:43;;;;;;;50.15;38.33;;;;;;;16.88;88.86;101581.41;5076551;28;19904;-40
2021/07/11 05:15:09;;;;;;;49.25;36.78;;;;;;;16.93;89.28;101578.72;5077456;28;20021;-41
2021/07/11 05:17:35;;;;;;;;;;;;;;;17.09;87.25;101588.75;5076537;28;20085;-39
2021/07/11 05:20:01;;;;;;;44.78;33.65;;;;;;;17.07;88.59;101587.34;5076779;28;20062;-39
2021/07/11 05:22:26;;;;;;;;;;;;;;;17.21;86.65;101586.69;5076801;28;20024;-39
2021/07/11 05:24:52;;;;;;;49.00;36.50;;;;;;;17.11;88.48;101581.13;5077214;28;19915;-39
2021/07/11 05:27:17;;;;;;;;;;;;;;;17.24;87.16;101585.38;5076773;28;20449;-39
2021/07/11 05:29:42;;;;;;;46.73;34.33;;;;;;;17.21;88.64;101583.13;5076340;28;19966;-39
2021/07/11 05:32:08;;;;;;;48.40;36.65;;;;;;;17.17;87.96;101579.25;5076217;28;20693;-40
2021/07/11 05:34:33;;;;;;;;;;;;;;;17.32;87.24;101581.31;5076921;28;20024;-40
2021/07/11 05:36:58;;;;;;;41.67;32.57;;;;;;;17.29;87.11;101581.88;5076239;28;19943;-40
2021/07/11 05:39:23;;;;;;;;;;;;;;;17.39;86.23;101585.50;5076842;28;20104;-40
2021/07/11 05:41:49;;;;;;;38.10;30.37;;;;;;;17.29;86.89;101588.16;5076110;28;20255;-40
2021/07/11 05:44:14;;;;;;;37.67;30.05;;;;;;;17.37;86.45;101597.78;5076328;28;20759;-40
2021/07/11 05:46:40;;;;;;;;;;;;;;;17.52;86.16;101608.91;5076832;28;20017;-40
2021/07/11 05:49:05;;;;;;;41.03;32.67;;;;;;;17.43;86.28;101616.72;5075652;28;19904;-40
2021/07/11 05:51:30;;;;;;;;;;;;;;;17.60;85.73;101613.88;5076658;28;20177;-40
2021/07/11 05:53:56;;;;;;;42.00;32.65;;;;;;;17.49;86.75;101614.88;5075904;28;19904;-40
2021/07/11 05:56:21;;;;;;;;;;;;;;;17.63;85.67;101613.38;5076321;28;20024;-40
2021/07/11 05:58:47;;;;;;;41.50;32.47;;;;;;;17.54;85.88;101603.16;5076012;28;19904;-40
2021/07/11 06:01:12;;;;;;;;;;;;;;;17.65;85.05;101621.28;5076240;28;20436;-40
2021/07/11 06:03:37;;;;;;;43.97;33.63;;;;;;;17.55;85.61;101618.47;5075593;28;19991;-40
2021/07/11 06:06:03;;;;;;;42.35;34.90;;;;;;;17.62;85.59;101619.91;5075924;28;20742;-40
2021/07/11 06:08:28;;;;;;;;;;;;;;;17.74;85.13;101626.06;5076021;28;20052;-40
2021/07/11 06:10:55;;;;;;;44.00;34.57;;;;;;;17.63;85.68;101624.31;5075313;28;19905;-40
2021/07/11 06:13:20;;;;;;;44.05;36.15;;;;;;;17.59;86.11;101625.91;5075240;28;20719;-40
2021/07/11 06:15:46;;;;;;;46.58;37.50;;;;;;;17.65;86.56;101633.06;5075509;28;20028;-40
2021/07/11 06:18:12;;;;;;;;;;;;;;;17.81;85.15;101633.22;5075830;28;20031;-40
2021/07/11 06:20:37;;;;;;;44.83;35.60;;;;;;;17.77;85.58;101637.59;5075701;28;19905;-40
2021/07/11 06:23:03;;;;;;;;;;;;;;;17.89;84.64;101636.31;5075718;28;20024;-40
2021/07/11 06:25:28;;;;;;;42.95;33.55;;;;;;;17.81;85.09;101639.53;5075287;28;19954;-40
2021/07/11 06:27:53;;;;;;;;;;;;;;;17.96;84.56;101636.94;5075927;28;20365;-40
2021/07/11 06:30:19;;;;;;;44.90;33.43;;;;;;;18.00;85.16;101639.97;5076084;28;19919;-40
2021/07/11 06:32:45;;;;;;;42.72;34.75;;;;;;;18.03;84.60;101636.72;5075682;28;20274;-40
2021/07/11 06:35:14;;;;;;;49.85;35.10;;;;;;;18.09;84.68;101635.66;5075916;28;20466;-40
2021/07/11 06:37:41;;;;;;;48.03;38.38;;;;;;;18.08;84.97;101647.69;5075053;28;20070;-40
2021/07/11 06:40:07;;;;;;;45.58;35.47;;;;;;;18.06;84.76;101643.59;5075321;28;20077;-40
2021/07/11 06:42:33;;;;;;;49.95;37.53;;;;;;;18.01;83.91;101644.38;5074779;28;20017;-40
2021/07/11 06:44:58;;;;;;;;;;;;;;;18.15;83.92;101644.72;5075486;28;20039;-40
2021/07/11 06:47:23;;;;;;;45.97;35.33;;;;;;;18.03;83.59;101653.13;5074976;28;19927;-40
2021/07/11 06:49:49;;;;;;;;;;;;;;;18.17;83.70;101648.88;5075996;28;20255;-40
2021/07/11 06:52:14;;;;;;;43.70;33.80;;;;;;;18.11;84.47;101649.09;5074994;28;19995;-40
2021/07/11 06:54:39;;;;;;;;;;;;;;;18.20;83.55;101648.34;5075432;28;20055;-40
2021/07/11 06:57:05;;;;;;;49.35;37.30;;;;;;;18.11;83.91;101649.94;5074395;28;20317;-40
2021/07/11 06:59:30;;;;;;;;;;;;;;;18.19;83.51;101649.41;5075190;28;20036;-40
2021/07/11 07:01:56;;;;;;;51.63;36.60;;;;;;;18.06;84.40;101654.53;5074754;28;19909;-40
2021/07/11 07:04:21;;;;;;;;;;;;;;;18.17;83.83;101665.28;5074837;28;20804;-40
2021/07/11 07:06:46;;;;;;;48.00;36.43;;;;;;;18.01;84.71;101672.56;5074464;28;20397;-40
2021/07/11 07:09:11;;;;;;;;;;;;;;;18.09;83.98;101678.63;5074814;28;20065;-40
2021/07/11 07:11:37;;;;;;;50.20;38.00;;;;;;;17.78;84.55;101672.88;5074609;28;19904;-40
2021/07/11 07:14:02;;;;;;;;;;;;;;;17.87;83.83;101682.28;5073515;28;20266;-40
2021/07/11 07:16:27;;;;;;;46.97;36.00;;;;;;;17.71;84.38;101686.75;5074824;28;19949;-40
2021/07/11 07:18:53;;;;;;;;;;;;;;;17.81;83.62;101691.50;5074352;28;20344;-40
2021/07/11 07:21:18;;;;;;;45.13;33.23;;;;;;;17.68;83.94;101691.91;5075005;28;19905;-40
2021/07/11 07:23:44;;;;;;;45.03;32.78;;;;;;;17.65;84.61;101697.88;5073530;28;20294;-40
2021/07/11 07:26:10;;;;;;;42.25;32.85;;;;;;;17.60;85.29;101703.28;5073800;28;20017;-40
2021/07/11 07:28:35;;;;;;;42.38;31.63;;;;;;;17.61;84.69;101694.81;5073638;28;20107;-41
2021/07/11 07:31:00;;;;;;;;;;;;;;;17.72;84.27;101690.31;5075049;28;20040;-40
2021/07/11 07:33:26;;;;;;;36.90;28.37;;;;;;;17.61;84.64;101700.28;5074489;28;19916;-40
2021/07/11 07:35:51;;;;;;;37.92;28.90;;;;;;;17.64;84.44;101691.59;5074122;28;20270;-40
2021/07/11 07:38:16;;;;;;;;;;;;;;;17.78;83.44;101693.94;5073956;28;20056;-40
2021/07/11 07:40:42;;;;;;;39.60;29.67;;;;;;;17.75;85.15;101689.81;5073889;28;20359;-40
2021/07/11 07:43:07;;;;;;;;;;;;;;;17.89;83.86;101693.78;5074170;28;20028;-40
2021/07/11 07:45:33;;;;;;;37.40;29.40;;;;;;;17.87;83.86;101682.28;5073748;28;19909;-40
2021/07/11 07:47:58;;;;;;;40.58;30.23;;;;;;;17.94;83.32;101687.53;5073719;28;20027;-40
2021/07/11 07:50:24;;;;;;;;;;;;;;;18.10;83.06;101683.84;5073922;28;20016;-40
2021/07/11 07:52:49;;;;;;;34.03;27.25;;;;;;;18.12;82.28;101676.19;5073936;28;19909;-40
2021/07/11 07:55:14;;;;;;;;;;;;;;;18.28;82.58;101675.22;5074374;28;20066;-40
2021/07/11 07:57:40;;;;;;;31.77;26.83;;;;;;;18.46;81.66;101673.16;5073570;28;20002;-40
2021/07/11 08:00:10;;;;;;;;;;;;;;;18.66;81.38;101673.28;5073758;28;20028;-40
2021/07/11 08:02:36;;;;;;;29.92;26.05;;;;;;;18.82;80.14;101684.38;5073233;28;19912;-40
2021/07/11 08:05:01;;;;;;;;;;;;;;;19.00;80.30;101692.16;5074844;28;20137;-40
2021/07/11 08:07:26;;;;;;;24.27;21.65;;;;;;;19.07;77.60;101691.88;5073552;28;19911;-40
2021/07/11 08:09:52;;;;;;;;;;;;;;;19.22;78.99;101689.19;5074011;28;20365;-40
2021/07/11 08:12:18;;;;;;;21.77;19.48;;;;;;;19.25;76.95;101692.25;5073481;28;19958;-40
2021/07/11 08:14:44;;;;;;;21.85;18.23;;;;;;;19.26;74.67;101685.66;5074226;28;20035;-40
2021/07/11 08:17:09;;;;;;;;;;;;;;;19.44;75.16;101689.03;5073949;28;20029;-40
2021/07/11 08:19:34;;;;;;;16.53;14.83;;;;;;;19.39;73.10;101686.25;5073326;28;19946;-40
2021/07/11 08:22:00;;;;;;;;;;;;;;;19.56;75.15;101684.91;5073753;28;20433;-40
2021/07/11 08:24:25;;;;;;;18.80;13.23;;;;;;;19.55;73.10;101677.78;5073390;28;19912;-40
2021/07/11 08:26:50;;;;;;;;;;;;;;;19.74;74.09;101675.41;5073793;28;20286;-40
2021/07/11 08:29:15;;;;;;;11.57;10.40;;;;;;;19.79;70.54;101667.16;5073215;28;19919;-40
2021/07/11 08:31:41;;;;;;;15.32;9.18;;;;;;;19.84;69.92;101666.34;5073358;28;20028;-40
2021/07/11 08:34:07;;;;;;;9.23;8.23;;;;;;;19.96;69.53;101668.81;5073248;28;20024;-40
2021/07/11 08:36:32;;;;;;;;;;;;;;;20.16;72.33;101670.75;5075282;28;20020;-40
2021/07/11 08:39:01;;;;;;;8.18;6.60;;;;;;;20.23;69.29;101676.78;5077822;28;19995;-40
2021/07/11 08:41:26;;;;;;;7.00;6.30;;;;;;;20.27;66.96;101673.22;5077450;28;20036;-40
2021/07/11 08:43:52;;;;;;;;;;;;;;;20.48;70.05;101675.97;5077308;28;20025;-40
2021/07/11 08:46:18;;;;;;;5.90;4.85;;;;;;;20.48;64.34;101682.28;5077707;28;19908;-40
2021/07/11 08:48:47;;;;;;;;;;;;;;;20.65;68.06;101672.94;5077652;28;20156;-40
2021/07/11 08:51:13;;;;;;;6.13;4.65;;;;;;;20.58;64.21;101676.75;5077126;28;19910;-40
2021/07/11 08:53:40;;;;;;;6.25;5.00;;;;;;;20.69;63.64;101669.34;5077174;28;20476;-40
2021/07/11 08:56:16;;;;;;;5.55;4.90;;;;;;;20.80;65.32;101673.69;5076979;28;20039;-40
2021/07/11 08:58:48;;;;;;;8.40;5.25;;;;;;;20.91;63.41;101670.91;5076860;28;20142;-40
2021/07/11 09:01:13;;;;;;;6.63;4.88;;;;;;;20.98;63.41;101671.44;5077117;28;20031;-40
2021/07/11 09:03:38;;;;;;;;;;;;;;;21.19;65.04;101674.94;5076833;28;20028;-40
2021/07/11 09:06:04;;;;;;;4.53;3.83;;;;;;;21.18;61.49;101678.75;5110245;28;19909;-40
2021/07/11 09:08:30;;;;;;;6.07;4.00;;;;;;;21.22;61.19;101677.09;5076963;28;20017;-40
2021/07/11 09:10:58;;;;;;;5.43;4.47;;;;;;;21.34;60.51;101678.47;5076449;28;20445;-40
2021/07/11 09:13:28;;;;;;;6.30;4.72;;;;;;;21.27;60.77;101688.06;5076865;28;20024;-40
2021/07/11 09:15:58;;;;;;;5.25;4.78;;;;;;;21.42;60.96;101687.22;5077395;28;20029;-40
2021/07/11 09:18:32;;;;;;;5.20;4.70;;;;;;;21.55;61.60;101686.59;5076813;28;20441;-40
2021/07/11 09:21:03;;;;;;;4.20;3.80;;;;;;;21.64;59.40;101684.06;5076246;28;20499;-40
2021/07/11 09:23:31;;;;;;;5.57;3.58;;;;;;;21.69;58.76;101684.84;5076342;28;20146;-40
2021/07/11 09:26:02;;;;;;;4.10;3.33;;;;;;;21.62;59.77;101678.00;5076942;28;20025;-40
2021/07/11 09:28:29;;;;;;;5.43;3.40;;;;;;;21.55;61.24;101681.09;5076339;28;20056;-40
2021/07/11 09:31:07;;;;;;;4.05;3.38;;;;;;;21.40;61.14;101686.69;5077270;28;20087;-40
2021/07/11 09:33:35;;;;;;;4.18;3.70;;;;;;;21.34;60.44;101692.22;5076183;28;20024;-40
2021/07/11 09:36:16;;;;;;;5.82;2.97;;;;;;;21.58;61.32;101680.53;5076214;28;20023;-40
2021/07/11 09:38:47;;;;;;;4.63;2.78;;;;;;;21.85;59.90;101683.63;5076224;28;20031;-40
2021/07/11 09:41:15;;;;;;;4.57;2.65;;;;;;;22.08;58.80;101679.31;5076106;28;20028;-40
2021/07/11 09:43:41;;;;;;;4.47;2.70;;;;;;;22.12;57.34;101682.38;5075627;28;20528;-40
2021/07/11 09:46:14;;;;;;;3.40;2.50;;;;;;;22.10;57.36;101676.28;5076041;28;20024;-40
2021/07/11 09:48:39;;;;;;;4.13;2.90;;;;;;;22.00;57.29;101673.59;5075649;28;20108;-40
2021/07/11 09:51:21;;;;;;;4.03;2.83;;;;;;;22.07;56.04;101674.94;5076270;28;20108;-40
2021/07/11 09:53:50;;;;;;;3.20;2.00;;;;;;;22.19;55.74;101682.84;5075829;28;20064;-40
2021/07/11 09:56:34;;;;;;;2.95;2.03;;;;;;;22.45;56.21;101686.22;5076718;28;20399;-40
2021/07/11 09:59:01;;;;;;;3.03;1.50;;;;;;;22.57;53.83;101683.88;5075784;28;20040;-40
2021/07/11 10:01:31;;;;;;;2.10;1.70;;;;;;;22.73;53.66;101691.97;5075733;28;20373;-40
2021/07/11 10:03:58;;;;;;;4.03;1.50;;;;;;;22.79;53.78;101686.13;5075684;28;20107;-40
2021/07/11 10:06:25;;;;;;;2.38;1.40;;;;;;;22.73;52.36;101675.44;5075924;28;20021;-41
2021/07/11 10:08:51;;;;;;;1.80;1.60;;;;;;;22.89;52.26;101679.72;5076387;28;20111;-40
2021/07/11 10:11:16;;;;;;;1.90;1.35;;;;;;;23.05;52.61;101683.09;5074752;28;20132;-40
2021/07/11 10:13:41;;;;;;;3.03;1.65;;;;;;;23.00;51.88;101685.91;5075236;28;20036;-40
2021/07/11 10:16:11;;;;;;;4.25;1.70;;;;;;;22.96;51.95;101687.63;5075522;28;20025;-40
2021/07/11 10:18:38;;;;;;;3.92;1.52;;;;;;;23.06;53.68;101684.72;5075825;28;20384;-41
2021/07/11 10:21:04;;;;;;;2.20;1.40;;;;;;;23.25;51.67;101680.06;5075425;28;20029;-40
2021/07/11 10:23:37;;;;;;;1.70;1.38;;;;;;;23.35;51.93;101688.22;5073836;28;20074;-40
2021/07/11 10:26:13;;;;;;;1.92;1.40;;;;;;;23.38;50.65;101673.81;5075826;28;20039;-40
2021/07/11 10:28:40;;;;;;;;;;;;;;;23.75;52.64;101679.66;5075090;28;20013;-41
2021/07/11 10:31:16;;;;;;;;;;;;;;;23.91;53.52;101678.28;5075600;28;19912;-40
2021/07/11 10:33:43;;;;;;;1.98;1.70;;;;;;;23.52;50.21;101673.91;5074809;28;19925;-40
2021/07/11 10:36:09;;;;;;;1.75;1.50;;;;;;;23.81;50.25;101672.94;5074724;28;20029;-40
2021/07/11 10:38:36;;;;;;;2.10;1.67;;;;;;;23.75;48.89;101679.66;5075005;28;20313;-40
2021/07/11 10:41:45;;;;;;;2.10;1.60;;;;;;;23.89;51.13;101684.13;5074993;28;20031;-41
2021/07/11 10:44:21;;;;;;;3.30;1.52;;;;;;;23.85;49.88;101680.31;5053013;28;20064;-40
2021/07/11 10:46:48;;;;;;;;;;;;;;;24.20;50.50;101680.03;5039784;28;20107;-40
2021/07/11 10:49:20;;;;;;;2.10;1.80;;;;;;;23.82;49.22;101678.19;5032775;28;19994;-40
2021/07/11 10:51:53;;;;;;;2.00;1.60;;;;;;;23.68;49.88;101677.28;5033785;28;20034;-40
2021/07/11 10:54:46;;;;;;;2.40;1.40;;;;;;;23.52;50.74;101675.81;5039813;28;20481;-40
2021/07/11 10:57:12;;;;;;;2.17;1.50;;;;;;;23.57;50.34;101681.28;5049161;28;20036;-40
2021/07/11 10:59:43;;;;;;;3.25;2.10;;;;;;;23.42;49.72;101673.22;5041897;28;20496;-40
2021/07/11 11:02:21;;;;;;;2.65;2.05;;;;;;;23.44;51.02;101676.50;5052989;28;20025;-40
2021/07/11 11:05:00;;;;;;;2.83;2.30;;;;;;;23.64;51.25;101671.53;5052149;28;20082;-40
2021/07/11 11:07:26;;;;;;;2.78;1.95;;;;;;;23.83;50.09;101677.06;5045988;28;20100;-40
2021/07/11 11:09:51;;;;;;;3.20;2.83;;;;;;;23.74;49.72;101678.03;5032210;28;20462;-40
2021/07/11 11:12:27;;;;;;;3.78;3.17;;;;;;;23.92;51.99;101666.16;5036352;28;20041;-40
2021/07/11 11:15:03;;;;;;;;;;;;;;;24.45;51.52;101676.88;5045576;28;20105;-40
2021/07/11 11:17:34;;;;;;;5.22;3.30;;;;;;;24.51;48.88;101672.88;5051924;28;19912;-40
2021/07/11 11:20:03;;;;;;;4.47;3.58;;;;;;;24.50;48.11;101678.69;5053396;28;20033;-40
2021/07/11 11:22:28;;;;;;;4.18;3.40;;;;;;;24.28;48.26;101677.41;5053804;28;20060;-40
2021/07/11 11:24:54;;;;;;;3.95;3.42;;;;;;;24.06;49.37;101677.22;5054740;28;20056;-40
2021/07/11 11:27:33;;;;;;;5.47;3.28;;;;;;;23.84;50.02;101677.88;5054159;28;20096;-40
2021/07/11 11:30:19;;;;;;;5.97;3.65;;;;;;;23.65;50.87;101683.41;5054586;28;20452;-40
2021/07/11 11:33:03;;;;;;;4.87;4.10;;;;;;;23.57;51.32;101679.34;5053987;28;20028;-40